sensor_id;sensor_type;location;lat;lon;timestamp;P1;durP1;ratioP1;P2;durP2;ratioP2
11943;SDS011;6031;50.220;10.122;2022-09-09T00:01:00;1.37;;;1.27;;
11943;SDS011;6031;50.220;10.122;2022-09-09T00:03:57;2.47;;;1.57;;
11943;SDS011;6031;50.220;10.122;2022-09-09T00:06:31;3.47;;;1.77;;
11943;SDS011;6031;50.220;10.122;2022-09-09T00:09:19;2.13;;;1.50;;
11943;SDS011;6031;50.220;10.122;2022-09-09T00:11:52;1.47;;;1.37;;
11943;SDS011;6031;50.220;10.122;2022-09-09T00:14:31;1.60;;;1.50;;
11943;SDS011;6031;50.220;10.122;2022-09-09T00:17:11;2.30;;;1.60;;
11943;SDS011;6031;50.220;10.122;2022-09-09T00:22:19;1.30;;;1.20;;
11943;SDS011;6031;50.220;10.122;2022-09-09T00:24:49;4.73;;;2.00;;
11943;SDS011;6031;50.220;10.122;2022-09-09T00:29:57;2.00;;;1.90;;
11943;SDS011;6031;50.220;10.122;2022-09-09T00:32:37;2.47;;;1.87;;
11943;SDS011;6031;50.220;10.122;2022-09-09T00:37:57;1.93;;;1.83;;
11943;SDS011;6031;50.220;10.122;2022-09-09T00:40:34;2.33;;;1.90;;
11943;SDS011;6031;50.220;10.122;2022-09-09T00:48:54;2.10;;;2.00;;
11943;SDS011;6031;50.220;10.122;2022-09-09T01:02:16;1.90;;;1.80;;
11943;SDS011;6031;50.220;10.122;2022-09-09T01:04:43;2.63;;;1.83;;
11943;SDS011;6031;50.220;10.122;2022-09-09T01:07:16;2.43;;;1.57;;
11943;SDS011;6031;50.220;10.122;2022-09-09T01:09:59;1.50;;;1.13;;
11943;SDS011;6031;50.220;10.122;2022-09-09T01:12:38;2.83;;;1.83;;
11943;SDS011;6031;50.220;10.122;2022-09-09T01:26:33;2.20;;;1.30;;
11943;SDS011;6031;50.220;10.122;2022-09-09T01:29:08;2.60;;;1.70;;
11943;SDS011;6031;50.220;10.122;2022-09-09T01:31:37;2.33;;;1.80;;
11943;SDS011;6031;50.220;10.122;2022-09-09T01:34:10;1.60;;;1.50;;
11943;SDS011;6031;50.220;10.122;2022-09-09T01:36:48;1.70;;;1.30;;
11943;SDS011;6031;50.220;10.122;2022-09-09T01:39:29;3.77;;;1.70;;
11943;SDS011;6031;50.220;10.122;2022-09-09T01:41:56;1.50;;;1.40;;
11943;SDS011;6031;50.220;10.122;2022-09-09T01:44:22;1.97;;;1.50;;
11943;SDS011;6031;50.220;10.122;2022-09-09T01:46:49;7.17;;;1.40;;
11943;SDS011;6031;50.220;10.122;2022-09-09T01:49:15;1.73;;;1.53;;
11943;SDS011;6031;50.220;10.122;2022-09-09T01:51:42;2.47;;;1.40;;
11943;SDS011;6031;50.220;10.122;2022-09-09T01:54:11;1.50;;;1.40;;
11943;SDS011;6031;50.220;10.122;2022-09-09T02:01:56;1.57;;;1.50;;
11943;SDS011;6031;50.220;10.122;2022-09-09T02:04:38;3.83;;;1.80;;
11943;SDS011;6031;50.220;10.122;2022-09-09T02:10:02;4.00;;;1.70;;
11943;SDS011;6031;50.220;10.122;2022-09-09T02:12:45;2.33;;;1.43;;
11943;SDS011;6031;50.220;10.122;2022-09-09T02:16:03;2.40;;;1.87;;
11943;SDS011;6031;50.220;10.122;2022-09-09T02:18:01;1.87;;;1.73;;
11943;SDS011;6031;50.220;10.122;2022-09-09T02:20:32;2.10;;;1.77;;
11943;SDS011;6031;50.220;10.122;2022-09-09T02:22:59;2.13;;;1.47;;
11943;SDS011;6031;50.220;10.122;2022-09-09T02:25:28;1.87;;;1.70;;
11943;SDS011;6031;50.220;10.122;2022-09-09T02:27:56;2.33;;;1.70;;
11943;SDS011;6031;50.220;10.122;2022-09-09T02:30:26;3.67;;;1.53;;
11943;SDS011;6031;50.220;10.122;2022-09-09T02:32:56;1.97;;;1.77;;
11943;SDS011;6031;50.220;10.122;2022-09-09T02:35:24;1.77;;;1.67;;
11943;SDS011;6031;50.220;10.122;2022-09-09T02:37:52;3.83;;;1.70;;
11943;SDS011;6031;50.220;10.122;2022-09-09T02:40:21;1.57;;;1.40;;
11943;SDS011;6031;50.220;10.122;2022-09-09T02:42:47;3.13;;;1.43;;
11943;SDS011;6031;50.220;10.122;2022-09-09T02:45:16;2.23;;;1.70;;
11943;SDS011;6031;50.220;10.122;2022-09-09T02:47:55;3.70;;;1.77;;
11943;SDS011;6031;50.220;10.122;2022-09-09T02:50:33;3.00;;;2.00;;
11943;SDS011;6031;50.220;10.122;2022-09-09T02:53:18;4.10;;;2.10;;
11943;SDS011;6031;50.220;10.122;2022-09-09T02:55:48;5.13;;;2.07;;
11943;SDS011;6031;50.220;10.122;2022-09-09T02:58:19;3.63;;;1.90;;
11943;SDS011;6031;50.220;10.122;2022-09-09T03:00:46;2.10;;;1.90;;
11943;SDS011;6031;50.220;10.122;2022-09-09T03:03:13;2.63;;;2.27;;
11943;SDS011;6031;50.220;10.122;2022-09-09T03:05:41;5.50;;;2.43;;
11943;SDS011;6031;50.220;10.122;2022-09-09T03:08:06;4.13;;;2.73;;
11943;SDS011;6031;50.220;10.122;2022-09-09T03:10:32;2.30;;;2.10;;
11943;SDS011;6031;50.220;10.122;2022-09-09T03:12:59;2.33;;;2.23;;
11943;SDS011;6031;50.220;10.122;2022-09-09T03:15:24;2.10;;;2.00;;
11943;SDS011;6031;50.220;10.122;2022-09-09T03:17:53;3.43;;;2.10;;
11943;SDS011;6031;50.220;10.122;2022-09-09T03:20:20;1.93;;;1.70;;
11943;SDS011;6031;50.220;10.122;2022-09-09T03:22:45;2.20;;;2.00;;
11943;SDS011;6031;50.220;10.122;2022-09-09T03:25:11;3.70;;;2.10;;
11943;SDS011;6031;50.220;10.122;2022-09-09T03:27:36;2.20;;;2.00;;
11943;SDS011;6031;50.220;10.122;2022-09-09T03:30:02;2.17;;;1.67;;
11943;SDS011;6031;50.220;10.122;2022-09-09T03:32:28;2.13;;;1.93;;
11943;SDS011;6031;50.220;10.122;2022-09-09T03:34:54;2.73;;;2.37;;
11943;SDS011;6031;50.220;10.122;2022-09-09T03:37:19;2.93;;;2.27;;
11943;SDS011;6031;50.220;10.122;2022-09-09T03:39:45;2.10;;;1.97;;
11943;SDS011;6031;50.220;10.122;2022-09-09T03:42:14;2.67;;;2.47;;
11943;SDS011;6031;50.220;10.122;2022-09-09T03:44:43;3.03;;;2.13;;
11943;SDS011;6031;50.220;10.122;2022-09-09T03:47:12;2.27;;;2.00;;
11943;SDS011;6031;50.220;10.122;2022-09-09T03:49:38;2.80;;;2.53;;
11943;SDS011;6031;50.220;10.122;2022-09-09T03:52:03;3.20;;;2.87;;
11943;SDS011;6031;50.220;10.122;2022-09-09T03:54:29;5.57;;;2.83;;
11943;SDS011;6031;50.220;10.122;2022-09-09T03:56:54;3.90;;;2.73;;
11943;SDS011;6031;50.220;10.122;2022-09-09T03:59:20;4.70;;;3.23;;
11943;SDS011;6031;50.220;10.122;2022-09-09T04:01:46;4.87;;;3.37;;
11943;SDS011;6031;50.220;10.122;2022-09-09T04:04:12;5.50;;;3.07;;
11943;SDS011;6031;50.220;10.122;2022-09-09T04:06:37;2.50;;;2.30;;
11943;SDS011;6031;50.220;10.122;2022-09-09T04:09:03;4.57;;;2.60;;
11943;SDS011;6031;50.220;10.122;2022-09-09T04:11:29;3.43;;;2.47;;
11943;SDS011;6031;50.220;10.122;2022-09-09T04:13:54;3.37;;;2.37;;
11943;SDS011;6031;50.220;10.122;2022-09-09T04:16:20;2.20;;;2.00;;
11943;SDS011;6031;50.220;10.122;2022-09-09T04:18:46;2.60;;;2.00;;
11943;SDS011;6031;50.220;10.122;2022-09-09T04:21:11;3.23;;;2.90;;
11943;SDS011;6031;50.220;10.122;2022-09-09T04:23:37;2.57;;;2.37;;
11943;SDS011;6031;50.220;10.122;2022-09-09T04:26:03;5.07;;;2.47;;
11943;SDS011;6031;50.220;10.122;2022-09-09T04:28:30;2.60;;;2.40;;
11943;SDS011;6031;50.220;10.122;2022-09-09T04:31:03;3.67;;;2.80;;
11943;SDS011;6031;50.220;10.122;2022-09-09T04:33:33;2.33;;;2.10;;
11943;SDS011;6031;50.220;10.122;2022-09-09T04:35:59;3.77;;;2.40;;
11943;SDS011;6031;50.220;10.122;2022-09-09T04:38:25;3.80;;;2.40;;
11943;SDS011;6031;50.220;10.122;2022-09-09T04:40:51;3.50;;;3.20;;
11943;SDS011;6031;50.220;10.122;2022-09-09T04:43:18;2.90;;;2.50;;
11943;SDS011;6031;50.220;10.122;2022-09-09T04:45:46;4.77;;;2.57;;
11943;SDS011;6031;50.220;10.122;2022-09-09T04:48:13;2.93;;;2.43;;
11943;SDS011;6031;50.220;10.122;2022-09-09T04:50:39;3.77;;;2.57;;
11943;SDS011;6031;50.220;10.122;2022-09-09T04:53:05;2.43;;;2.30;;
11943;SDS011;6031;50.220;10.122;2022-09-09T04:55:31;3.87;;;2.37;;
11943;SDS011;6031;50.220;10.122;2022-09-09T04:58:02;3.90;;;2.40;;
11943;SDS011;6031;50.220;10.122;2022-09-09T05:00:29;2.73;;;2.53;;
11943;SDS011;6031;50.220;10.122;2022-09-09T05:02:55;4.70;;;2.70;;
11943;SDS011;6031;50.220;10.122;2022-09-09T05:05:21;3.83;;;2.43;;
11943;SDS011;6031;50.220;10.122;2022-09-09T05:07:47;4.20;;;2.37;;
11943;SDS011;6031;50.220;10.122;2022-09-09T05:10:13;2.80;;;2.63;;
11943;SDS011;6031;50.220;10.122;2022-09-09T05:12:39;2.37;;;2.17;;
11943;SDS011;6031;50.220;10.122;2022-09-09T05:15:04;2.83;;;2.63;;
11943;SDS011;6031;50.220;10.122;2022-09-09T05:17:30;2.37;;;2.17;;
11943;SDS011;6031;50.220;10.122;2022-09-09T05:19:56;2.60;;;2.40;;
11943;SDS011;6031;50.220;10.122;2022-09-09T05:22:21;3.83;;;2.47;;
11943;SDS011;6031;50.220;10.122;2022-09-09T05:24:48;4.17;;;2.63;;
11943;SDS011;6031;50.220;10.122;2022-09-09T05:27:16;2.63;;;2.30;;
11943;SDS011;6031;50.220;10.122;2022-09-09T05:29:44;2.70;;;2.50;;
11943;SDS011;6031;50.220;10.122;2022-09-09T05:32:10;2.43;;;2.17;;
11943;SDS011;6031;50.220;10.122;2022-09-09T05:34:36;1.70;;;1.60;;
11943;SDS011;6031;50.220;10.122;2022-09-09T05:37:02;8.30;;;2.70;;
11943;SDS011;6031;50.220;10.122;2022-09-09T05:39:29;4.67;;;2.60;;
11943;SDS011;6031;50.220;10.122;2022-09-09T05:41:54;3.73;;;3.23;;
11943;SDS011;6031;50.220;10.122;2022-09-09T05:44:20;4.93;;;2.60;;
11943;SDS011;6031;50.220;10.122;2022-09-09T05:46:48;2.70;;;2.50;;
11943;SDS011;6031;50.220;10.122;2022-09-09T05:49:14;2.67;;;2.50;;
11943;SDS011;6031;50.220;10.122;2022-09-09T05:51:40;5.60;;;2.40;;
11943;SDS011;6031;50.220;10.122;2022-09-09T05:54:07;3.40;;;2.27;;
11943;SDS011;6031;50.220;10.122;2022-09-09T05:56:33;4.63;;;2.10;;
11943;SDS011;6031;50.220;10.122;2022-09-09T05:58:59;2.30;;;2.10;;
11943;SDS011;6031;50.220;10.122;2022-09-09T06:01:26;2.53;;;2.00;;
11943;SDS011;6031;50.220;10.122;2022-09-09T06:03:53;1.93;;;1.40;;
11943;SDS011;6031;50.220;10.122;2022-09-09T06:06:21;6.80;;;2.07;;
11943;SDS011;6031;50.220;10.122;2022-09-09T06:08:51;3.17;;;1.90;;
11943;SDS011;6031;50.220;10.122;2022-09-09T06:11:22;1.83;;;1.63;;
11943;SDS011;6031;50.220;10.122;2022-09-09T06:13:49;1.90;;;1.80;;
11943;SDS011;6031;50.220;10.122;2022-09-09T06:16:18;1.83;;;1.73;;
11943;SDS011;6031;50.220;10.122;2022-09-09T06:18:47;3.37;;;1.97;;
11943;SDS011;6031;50.220;10.122;2022-09-09T06:21:17;3.90;;;2.00;;
11943;SDS011;6031;50.220;10.122;2022-09-09T06:23:45;3.03;;;1.97;;
11943;SDS011;6031;50.220;10.122;2022-09-09T06:26:13;1.63;;;1.53;;
11943;SDS011;6031;50.220;10.122;2022-09-09T06:28:44;1.80;;;1.40;;
11943;SDS011;6031;50.220;10.122;2022-09-09T06:31:11;5.33;;;1.97;;
11943;SDS011;6031;50.220;10.122;2022-09-09T06:33:38;1.70;;;1.60;;
11943;SDS011;6031;50.220;10.122;2022-09-09T06:36:16;2.87;;;1.70;;
11943;SDS011;6031;50.220;10.122;2022-09-09T06:38:43;1.73;;;1.40;;
11943;SDS011;6031;50.220;10.122;2022-09-09T06:41:09;3.53;;;1.57;;
11943;SDS011;6031;50.220;10.122;2022-09-09T06:43:36;5.10;;;1.80;;
11943;SDS011;6031;50.220;10.122;2022-09-09T06:46:03;1.30;;;1.17;;
11943;SDS011;6031;50.220;10.122;2022-09-09T06:48:34;2.90;;;1.67;;
11943;SDS011;6031;50.220;10.122;2022-09-09T06:51:05;3.37;;;1.77;;
11943;SDS011;6031;50.220;10.122;2022-09-09T06:53:32;2.90;;;1.75;;
11943;SDS011;6031;50.220;10.122;2022-09-09T06:56:13;1.40;;;1.30;;
11943;SDS011;6031;50.220;10.122;2022-09-09T06:58:44;4.30;;;1.95;;
11943;SDS011;6031;50.220;10.122;2022-09-09T07:01:11;2.63;;;1.48;;
11943;SDS011;6031;50.220;10.122;2022-09-09T07:03:39;3.10;;;2.10;;
11943;SDS011;6031;50.220;10.122;2022-09-09T07:06:06;4.15;;;2.10;;
11943;SDS011;6031;50.220;10.122;2022-09-09T07:08:37;4.38;;;1.77;;
11943;SDS011;6031;50.220;10.122;2022-09-09T07:11:03;1.73;;;1.20;;
11943;SDS011;6031;50.220;10.122;2022-09-09T07:13:30;5.45;;;1.90;;
11943;SDS011;6031;50.220;10.122;2022-09-09T07:16:02;3.60;;;1.45;;
11943;SDS011;6031;50.220;10.122;2022-09-09T07:18:28;4.38;;;1.70;;
11943;SDS011;6031;50.220;10.122;2022-09-09T07:20:55;2.22;;;1.08;;
11943;SDS011;6031;50.220;10.122;2022-09-09T07:23:22;2.47;;;1.17;;
11943;SDS011;6031;50.220;10.122;2022-09-09T07:25:48;1.67;;;1.20;;
11943;SDS011;6031;50.220;10.122;2022-09-09T07:28:14;2.70;;;1.20;;
11943;SDS011;6031;50.220;10.122;2022-09-09T07:30:40;5.43;;;1.33;;
11943;SDS011;6031;50.220;10.122;2022-09-09T07:33:05;1.20;;;1.10;;
11943;SDS011;6031;50.220;10.122;2022-09-09T07:35:31;2.47;;;1.30;;
11943;SDS011;6031;50.220;10.122;2022-09-09T07:37:57;2.17;;;1.10;;
11943;SDS011;6031;50.220;10.122;2022-09-09T07:40:25;3.77;;;1.47;;
11943;SDS011;6031;50.220;10.122;2022-09-09T07:42:51;2.97;;;1.80;;
11943;SDS011;6031;50.220;10.122;2022-09-09T07:45:16;1.83;;;1.20;;
11943;SDS011;6031;50.220;10.122;2022-09-09T07:47:42;1.80;;;1.33;;
11943;SDS011;6031;50.220;10.122;2022-09-09T07:50:08;3.43;;;1.30;;
11943;SDS011;6031;50.220;10.122;2022-09-09T07:52:35;2.40;;;1.80;;
11943;SDS011;6031;50.220;10.122;2022-09-09T07:55:04;5.87;;;1.40;;
11943;SDS011;6031;50.220;10.122;2022-09-09T07:57:31;3.13;;;1.60;;
11943;SDS011;6031;50.220;10.122;2022-09-09T07:59:57;2.83;;;0.93;;
11943;SDS011;6031;50.220;10.122;2022-09-09T08:02:23;2.90;;;1.10;;
11943;SDS011;6031;50.220;10.122;2022-09-09T08:04:50;2.67;;;1.20;;
11943;SDS011;6031;50.220;10.122;2022-09-09T08:07:16;2.30;;;1.17;;
11943;SDS011;6031;50.220;10.122;2022-09-09T08:09:42;3.77;;;1.43;;
11943;SDS011;6031;50.220;10.122;2022-09-09T08:12:08;2.57;;;1.23;;
11943;SDS011;6031;50.220;10.122;2022-09-09T08:14:34;4.47;;;1.23;;
11943;SDS011;6031;50.220;10.122;2022-09-09T08:17:00;4.70;;;1.27;;
11943;SDS011;6031;50.220;10.122;2022-09-09T08:19:26;5.03;;;1.23;;
11943;SDS011;6031;50.220;10.122;2022-09-09T08:21:54;2.60;;;1.20;;
11943;SDS011;6031;50.220;10.122;2022-09-09T08:24:19;1.70;;;0.90;;
11943;SDS011;6031;50.220;10.122;2022-09-09T08:26:46;1.20;;;1.07;;
11943;SDS011;6031;50.220;10.122;2022-09-09T08:29:14;2.87;;;1.03;;
11943;SDS011;6031;50.220;10.122;2022-09-09T08:31:47;3.47;;;1.67;;
11943;SDS011;6031;50.220;10.122;2022-09-09T08:34:19;3.33;;;1.67;;
11943;SDS011;6031;50.220;10.122;2022-09-09T08:36:46;2.67;;;0.83;;
11943;SDS011;6031;50.220;10.122;2022-09-09T08:39:13;4.00;;;1.23;;
11943;SDS011;6031;50.220;10.122;2022-09-09T08:44:27;0.93;;;0.83;;
11943;SDS011;6031;50.220;10.122;2022-09-09T08:47:16;4.20;;;1.30;;
11943;SDS011;6031;50.220;10.122;2022-09-09T08:55:29;2.90;;;1.10;;
11943;SDS011;6031;50.220;10.122;2022-09-09T09:01:26;8.40;;;1.60;;
11943;SDS011;6031;50.220;10.122;2022-09-09T09:06:21;1.93;;;1.37;;
11943;SDS011;6031;50.220;10.122;2022-09-09T09:11:25;2.60;;;1.43;;
11943;SDS011;6031;50.220;10.122;2022-09-09T09:13:54;6.13;;;1.30;;
11943;SDS011;6031;50.220;10.122;2022-09-09T09:16:34;1.83;;;1.30;;
11943;SDS011;6031;50.220;10.122;2022-09-09T09:19:12;2.97;;;1.53;;
11943;SDS011;6031;50.220;10.122;2022-09-09T09:21:40;4.57;;;1.53;;
11943;SDS011;6031;50.220;10.122;2022-09-09T09:24:16;2.43;;;1.63;;
11943;SDS011;6031;50.220;10.122;2022-09-09T09:26:51;1.33;;;1.10;;
11943;SDS011;6031;50.220;10.122;2022-09-09T09:29:18;3.27;;;1.40;;
11943;SDS011;6031;50.220;10.122;2022-09-09T09:31:51;3.23;;;1.50;;
11943;SDS011;6031;50.220;10.122;2022-09-09T09:34:19;4.63;;;1.27;;
11943;SDS011;6031;50.220;10.122;2022-09-09T09:36:46;1.87;;;1.10;;
11943;SDS011;6031;50.220;10.122;2022-09-09T09:39:25;5.53;;;1.30;;
11943;SDS011;6031;50.220;10.122;2022-09-09T09:41:56;8.63;;;1.53;;
11943;SDS011;6031;50.220;10.122;2022-09-09T09:44:26;2.78;;;1.38;;
11943;SDS011;6031;50.220;10.122;2022-09-09T09:47:04;3.90;;;1.20;;
11943;SDS011;6031;50.220;10.122;2022-09-09T09:49:38;1.48;;;0.95;;
11943;SDS011;6031;50.220;10.122;2022-09-09T09:52:04;2.97;;;1.35;;
11943;SDS011;6031;50.220;10.122;2022-09-09T09:54:33;1.67;;;0.80;;
11943;SDS011;6031;50.220;10.122;2022-09-09T09:57:13;4.17;;;0.77;;
11943;SDS011;6031;50.220;10.122;2022-09-09T09:59:40;4.73;;;1.37;;
11943;SDS011;6031;50.220;10.122;2022-09-09T10:02:20;2.90;;;1.67;;
11943;SDS011;6031;50.220;10.122;2022-09-09T10:05:00;2.57;;;1.30;;
11943;SDS011;6031;50.220;10.122;2022-09-09T10:07:31;3.13;;;1.60;;
11943;SDS011;6031;50.220;10.122;2022-09-09T10:09:58;3.40;;;1.43;;
11943;SDS011;6031;50.220;10.122;2022-09-09T10:22:56;0.97;;;0.63;;
11943;SDS011;6031;50.220;10.122;2022-09-09T10:31:34;2.97;;;0.53;;
11943;SDS011;6031;50.220;10.122;2022-09-09T10:40:32;3.83;;;1.73;;
11943;SDS011;6031;50.220;10.122;2022-09-09T10:43:09;3.70;;;1.17;;
11943;SDS011;6031;50.220;10.122;2022-09-09T10:45:49;3.53;;;1.27;;
11943;SDS011;6031;50.220;10.122;2022-09-09T10:56:44;2.47;;;2.20;;
11943;SDS011;6031;50.220;10.122;2022-09-09T10:59:17;2.30;;;1.03;;
11943;SDS011;6031;50.220;10.122;2022-09-09T11:01:48;3.67;;;1.30;;
11943;SDS011;6031;50.220;10.122;2022-09-09T11:04:29;2.87;;;1.40;;
11943;SDS011;6031;50.220;10.122;2022-09-09T11:06:59;6.63;;;1.50;;
11943;SDS011;6031;50.220;10.122;2022-09-09T11:09:31;12.57;;;2.67;;
11943;SDS011;6031;50.220;10.122;2022-09-09T11:12:02;4.03;;;1.30;;
11943;SDS011;6031;50.220;10.122;2022-09-09T11:14:38;4.33;;;1.57;;
11943;SDS011;6031;50.220;10.122;2022-09-09T11:17:15;2.90;;;1.07;;
11943;SDS011;6031;50.220;10.122;2022-09-09T11:19:45;4.33;;;1.60;;
11943;SDS011;6031;50.220;10.122;2022-09-09T11:25:05;2.97;;;1.20;;
11943;SDS011;6031;50.220;10.122;2022-09-09T11:27:44;2.97;;;1.00;;
11943;SDS011;6031;50.220;10.122;2022-09-09T11:33:37;1.67;;;0.70;;
11943;SDS011;6031;50.220;10.122;2022-09-09T11:36:33;3.57;;;0.77;;
11943;SDS011;6031;50.220;10.122;2022-09-09T11:39:28;2.97;;;1.10;;
11943;SDS011;6031;50.220;10.122;2022-09-09T11:44:39;2.20;;;0.83;;
11943;SDS011;6031;50.220;10.122;2022-09-09T11:47:22;2.93;;;1.00;;
11943;SDS011;6031;50.220;10.122;2022-09-09T11:49:54;2.40;;;1.03;;
11943;SDS011;6031;50.220;10.122;2022-09-09T11:53:03;2.93;;;1.20;;
11943;SDS011;6031;50.220;10.122;2022-09-09T11:58:04;5.17;;;1.60;;
11943;SDS011;6031;50.220;10.122;2022-09-09T12:00:32;4.23;;;1.07;;
11943;SDS011;6031;50.220;10.122;2022-09-09T12:02:58;2.23;;;1.13;;
11943;SDS011;6031;50.220;10.122;2022-09-09T12:05:23;3.27;;;1.07;;
11943;SDS011;6031;50.220;10.122;2022-09-09T12:08:02;4.67;;;1.20;;
11943;SDS011;6031;50.220;10.122;2022-09-09T12:15:54;1.87;;;1.20;;
11943;SDS011;6031;50.220;10.122;2022-09-09T12:18:36;2.17;;;0.87;;
11943;SDS011;6031;50.220;10.122;2022-09-09T12:23:43;2.07;;;0.80;;
11943;SDS011;6031;50.220;10.122;2022-09-09T12:37:06;1.13;;;0.53;;
11943;SDS011;6031;50.220;10.122;2022-09-09T12:39:47;2.03;;;0.97;;
11943;SDS011;6031;50.220;10.122;2022-09-09T12:42:22;2.57;;;0.70;;
11943;SDS011;6031;50.220;10.122;2022-09-09T12:44:52;3.50;;;1.23;;
11943;SDS011;6031;50.220;10.122;2022-09-09T12:47:27;1.80;;;0.97;;
11943;SDS011;6031;50.220;10.122;2022-09-09T12:50:10;1.40;;;0.90;;
11943;SDS011;6031;50.220;10.122;2022-09-09T12:52:42;3.50;;;0.83;;
11943;SDS011;6031;50.220;10.122;2022-09-09T12:55:16;0.70;;;0.60;;
11943;SDS011;6031;50.220;10.122;2022-09-09T12:57:46;0.50;;;0.50;;
11943;SDS011;6031;50.220;10.122;2022-09-09T13:00:16;1.43;;;0.60;;
11943;SDS011;6031;50.220;10.122;2022-09-09T13:02:52;2.60;;;1.03;;
11943;SDS011;6031;50.220;10.122;2022-09-09T13:05:23;0.90;;;0.50;;
11943;SDS011;6031;50.220;10.122;2022-09-09T13:07:50;2.30;;;0.93;;
11943;SDS011;6031;50.220;10.122;2022-09-09T13:10:26;1.73;;;0.93;;
11943;SDS011;6031;50.220;10.122;2022-09-09T13:12:55;1.80;;;0.53;;
11943;SDS011;6031;50.220;10.122;2022-09-09T13:15:22;1.60;;;0.50;;
11943;SDS011;6031;50.220;10.122;2022-09-09T13:17:54;0.60;;;0.27;;
11943;SDS011;6031;50.220;10.122;2022-09-09T13:20:25;0.80;;;0.50;;
11943;SDS011;6031;50.220;10.122;2022-09-09T13:22:52;2.23;;;0.77;;
11943;SDS011;6031;50.220;10.122;2022-09-09T13:25:26;0.77;;;0.40;;
11943;SDS011;6031;50.220;10.122;2022-09-09T13:28:00;1.70;;;1.10;;
11943;SDS011;6031;50.220;10.122;2022-09-09T13:30:30;0.57;;;0.43;;
11943;SDS011;6031;50.220;10.122;2022-09-09T13:35:55;0.70;;;0.50;;
11943;SDS011;6031;50.220;10.122;2022-09-09T13:38:23;1.90;;;0.90;;
11943;SDS011;6031;50.220;10.122;2022-09-09T13:40:53;1.43;;;0.93;;
11943;SDS011;6031;50.220;10.122;2022-09-09T13:43:36;0.50;;;0.40;;
11943;SDS011;6031;50.220;10.122;2022-09-09T13:48:57;0.75;;;0.40;;
11943;SDS011;6031;50.220;10.122;2022-09-09T13:54:06;1.47;;;0.80;;
11943;SDS011;6031;50.220;10.122;2022-09-09T13:56:34;1.17;;;0.80;;
11943;SDS011;6031;50.220;10.122;2022-09-09T13:59:00;2.10;;;0.40;;
11943;SDS011;6031;50.220;10.122;2022-09-09T14:01:28;2.80;;;0.70;;
11943;SDS011;6031;50.220;10.122;2022-09-09T14:03:53;1.13;;;0.50;;
11943;SDS011;6031;50.220;10.122;2022-09-09T14:06:19;1.67;;;0.50;;
11943;SDS011;6031;50.220;10.122;2022-09-09T14:08:46;1.10;;;0.60;;
11943;SDS011;6031;50.220;10.122;2022-09-09T14:11:13;0.80;;;0.50;;
11943;SDS011;6031;50.220;10.122;2022-09-09T14:13:39;0.40;;;0.40;;
11943;SDS011;6031;50.220;10.122;2022-09-09T14:16:05;0.50;;;0.43;;
11943;SDS011;6031;50.220;10.122;2022-09-09T14:18:31;3.03;;;0.70;;
11943;SDS011;6031;50.220;10.122;2022-09-09T14:20:56;0.43;;;0.30;;
11943;SDS011;6031;50.220;10.122;2022-09-09T14:23:23;5.80;;;0.67;;
11943;SDS011;6031;50.220;10.122;2022-09-09T14:25:49;1.07;;;0.40;;
11943;SDS011;6031;50.220;10.122;2022-09-09T14:28:15;1.37;;;0.60;;
11943;SDS011;6031;50.220;10.122;2022-09-09T14:30:42;0.90;;;0.30;;
11943;SDS011;6031;50.220;10.122;2022-09-09T14:33:10;1.53;;;0.77;;
11943;SDS011;6031;50.220;10.122;2022-09-09T14:35:37;2.43;;;0.93;;
11943;SDS011;6031;50.220;10.122;2022-09-09T14:38:03;7.63;;;1.17;;
11943;SDS011;6031;50.220;10.122;2022-09-09T14:40:29;2.07;;;0.47;;
11943;SDS011;6031;50.220;10.122;2022-09-09T14:42:55;0.93;;;0.53;;
11943;SDS011;6031;50.220;10.122;2022-09-09T14:45:21;2.30;;;0.70;;
11943;SDS011;6031;50.220;10.122;2022-09-09T14:47:49;0.70;;;0.70;;
11943;SDS011;6031;50.220;10.122;2022-09-09T14:50:15;0.77;;;0.53;;
11943;SDS011;6031;50.220;10.122;2022-09-09T14:52:40;1.20;;;0.70;;
11943;SDS011;6031;50.220;10.122;2022-09-09T14:55:06;3.80;;;1.30;;
11943;SDS011;6031;50.220;10.122;2022-09-09T14:57:32;5.57;;;1.20;;
11943;SDS011;6031;50.220;10.122;2022-09-09T14:59:57;0.77;;;0.60;;
11943;SDS011;6031;50.220;10.122;2022-09-09T15:02:23;2.10;;;0.70;;
11943;SDS011;6031;50.220;10.122;2022-09-09T15:04:48;1.90;;;0.80;;
11943;SDS011;6031;50.220;10.122;2022-09-09T15:07:15;1.60;;;0.80;;
11943;SDS011;6031;50.220;10.122;2022-09-09T15:09:42;0.90;;;0.53;;
11943;SDS011;6031;50.220;10.122;2022-09-09T15:12:07;0.93;;;0.43;;
11943;SDS011;6031;50.220;10.122;2022-09-09T15:14:33;2.87;;;0.70;;
11943;SDS011;6031;50.220;10.122;2022-09-09T15:17:00;1.40;;;0.67;;
11943;SDS011;6031;50.220;10.122;2022-09-09T15:19:26;2.00;;;0.60;;
11943;SDS011;6031;50.220;10.122;2022-09-09T15:21:51;0.77;;;0.47;;
11943;SDS011;6031;50.220;10.122;2022-09-09T15:24:17;0.63;;;0.60;;
11943;SDS011;6031;50.220;10.122;2022-09-09T15:26:43;0.40;;;0.30;;
11943;SDS011;6031;50.220;10.122;2022-09-09T15:29:08;0.40;;;0.40;;
11943;SDS011;6031;50.220;10.122;2022-09-09T15:31:34;3.43;;;1.07;;
11943;SDS011;6031;50.220;10.122;2022-09-09T15:34:01;1.10;;;0.60;;
11943;SDS011;6031;50.220;10.122;2022-09-09T15:36:30;3.43;;;1.07;;
11943;SDS011;6031;50.220;10.122;2022-09-09T15:38:57;3.37;;;0.63;;
11943;SDS011;6031;50.220;10.122;2022-09-09T15:41:27;0.40;;;0.40;;
11943;SDS011;6031;50.220;10.122;2022-09-09T15:43:54;2.60;;;0.83;;
11943;SDS011;6031;50.220;10.122;2022-09-09T15:49:05;3.83;;;0.80;;
11943;SDS011;6031;50.220;10.122;2022-09-09T15:51:35;0.30;;;0.30;;
11943;SDS011;6031;50.220;10.122;2022-09-09T15:54:02;2.53;;;0.70;;
11943;SDS011;6031;50.220;10.122;2022-09-09T15:56:29;2.50;;;0.90;;
11943;SDS011;6031;50.220;10.122;2022-09-09T15:58:58;0.60;;;0.50;;
11943;SDS011;6031;50.220;10.122;2022-09-09T16:01:25;4.13;;;1.73;;
11943;SDS011;6031;50.220;10.122;2022-09-09T16:03:52;2.93;;;1.30;;
11943;SDS011;6031;50.220;10.122;2022-09-09T16:06:19;0.73;;;0.70;;
11943;SDS011;6031;50.220;10.122;2022-09-09T16:08:46;1.23;;;1.00;;
11943;SDS011;6031;50.220;10.122;2022-09-09T16:11:18;1.57;;;0.80;;
11943;SDS011;6031;50.220;10.122;2022-09-09T16:13:45;2.40;;;0.63;;
11943;SDS011;6031;50.220;10.122;2022-09-09T16:16:12;1.47;;;0.80;;
11943;SDS011;6031;50.220;10.122;2022-09-09T16:18:40;3.90;;;0.93;;
11943;SDS011;6031;50.220;10.122;2022-09-09T16:21:08;2.37;;;1.03;;
11943;SDS011;6031;50.220;10.122;2022-09-09T16:23:39;3.03;;;0.93;;
11943;SDS011;6031;50.220;10.122;2022-09-09T16:26:05;2.27;;;1.20;;
11943;SDS011;6031;50.220;10.122;2022-09-09T16:28:30;0.60;;;0.50;;
11943;SDS011;6031;50.220;10.122;2022-09-09T16:30:56;1.50;;;0.77;;
11943;SDS011;6031;50.220;10.122;2022-09-09T16:33:23;2.53;;;0.67;;
11943;SDS011;6031;50.220;10.122;2022-09-09T16:35:48;2.57;;;0.90;;
11943;SDS011;6031;50.220;10.122;2022-09-09T16:38:14;1.13;;;0.73;;
11943;SDS011;6031;50.220;10.122;2022-09-09T16:40:40;0.60;;;0.60;;
11943;SDS011;6031;50.220;10.122;2022-09-09T16:43:06;1.17;;;0.60;;
11943;SDS011;6031;50.220;10.122;2022-09-09T16:45:32;0.63;;;0.50;;
11943;SDS011;6031;50.220;10.122;2022-09-09T16:47:58;1.00;;;0.90;;
11943;SDS011;6031;50.220;10.122;2022-09-09T16:50:25;2.27;;;0.70;;
11943;SDS011;6031;50.220;10.122;2022-09-09T16:52:51;1.53;;;0.60;;
11943;SDS011;6031;50.220;10.122;2022-09-09T16:55:17;1.37;;;0.70;;
11943;SDS011;6031;50.220;10.122;2022-09-09T16:57:45;2.00;;;0.60;;
11943;SDS011;6031;50.220;10.122;2022-09-09T17:00:14;2.13;;;0.60;;
11943;SDS011;6031;50.220;10.122;2022-09-09T17:02:41;2.17;;;0.80;;
11943;SDS011;6031;50.220;10.122;2022-09-09T17:05:08;2.50;;;0.60;;
11943;SDS011;6031;50.220;10.122;2022-09-09T17:07:34;3.03;;;0.87;;
11943;SDS011;6031;50.220;10.122;2022-09-09T17:10:00;0.83;;;0.57;;
11943;SDS011;6031;50.220;10.122;2022-09-09T17:12:26;1.83;;;0.93;;
11943;SDS011;6031;50.220;10.122;2022-09-09T17:14:51;2.07;;;0.53;;